createdAt,value
2022-08-27T00:11:06.104Z,4.13
2022-08-27T00:12:38.617Z,4.20
2022-08-27T00:14:10.812Z,3.90
2022-08-27T00:15:42.842Z,3.55
2022-08-27T00:17:14.963Z,4.50
2022-08-27T00:18:48.436Z,3.85
2022-08-27T00:20:22.734Z,4.00
2022-08-27T00:21:56.035Z,3.78
2022-08-27T00:24:59.991Z,4.00
2022-08-27T00:26:32.116Z,4.10
2022-08-27T00:28:04.186Z,4.28
2022-08-27T00:29:36.422Z,3.80
2022-08-27T00:31:09.457Z,4.05
2022-08-27T00:32:44.862Z,3.70
2022-08-27T00:34:16.921Z,3.88
2022-08-27T00:35:50.217Z,4.25
2022-08-27T00:38:54.538Z,4.47
2022-08-27T00:40:27.758Z,4.07
2022-08-27T00:43:52.731Z,4.10
2022-08-27T00:45:25.939Z,4.30
2022-08-27T00:47:04.949Z,4.38
2022-08-27T00:48:37.324Z,4.22
2022-08-27T00:50:12.963Z,3.92
2022-08-27T00:51:47.012Z,3.85
2022-08-27T00:53:25.045Z,3.83
2022-08-27T00:55:06.033Z,4.57
2022-08-27T00:56:45.558Z,4.38
2022-08-27T01:41:19.324Z,4.13
2022-08-27T01:42:54.160Z,4.25
2022-08-27T01:44:26.193Z,3.92
2022-08-27T01:45:58.812Z,4.18
2022-08-27T01:47:31.442Z,4.22
2022-08-27T01:49:03.655Z,4.13
2022-08-27T01:50:39.360Z,4.10
2022-08-27T01:52:12.008Z,4.55
2022-08-27T01:53:44.165Z,4.00
2022-08-27T01:55:19.115Z,4.25
2022-08-27T01:56:51.250Z,4.32
2022-08-27T01:58:25.974Z,3.97
2022-08-27T01:59:58.346Z,4.20
2022-08-27T02:01:30.401Z,4.22
2022-08-27T02:03:03.133Z,3.83
2022-08-27T02:04:35.322Z,4.60
2022-08-27T02:06:10.824Z,4.15
2022-08-27T02:07:43.130Z,4.22
2022-08-27T02:25:38.556Z,4.57
2022-08-27T02:27:11.172Z,3.83
2022-08-27T02:28:43.924Z,4.18
2022-08-27T02:30:18.886Z,4.00
2022-08-27T02:31:51.115Z,4.35
2022-08-27T02:33:23.300Z,4.00
2022-08-27T02:34:56.805Z,4.60
2022-08-27T02:36:32.034Z,4.43
2022-08-27T02:38:04.133Z,4.35
2022-08-27T02:39:36.487Z,4.05
2022-08-27T02:43:58.068Z,5.60
2022-08-27T02:53:40.061Z,4.22
2022-08-27T03:03:10.796Z,4.03
2022-08-27T03:04:43.103Z,4.38
2022-08-27T03:06:15.226Z,4.30
2022-08-27T03:07:47.323Z,4.00
2022-08-27T03:09:19.374Z,4.47
2022-08-27T03:10:52.211Z,4.82
2022-08-27T03:12:25.926Z,4.40
2022-08-27T03:13:58.924Z,4.60
2022-08-27T03:15:31.057Z,4.20
2022-08-27T03:17:21.706Z,4.70
2022-08-27T03:18:54.023Z,4.53
2022-08-27T03:20:27.532Z,4.60
2022-08-27T03:21:59.565Z,4.05
2022-08-27T03:23:35.301Z,4.68
2022-08-27T03:40:43.480Z,4.10
2022-08-27T03:42:15.577Z,4.50
2022-08-27T03:43:48.133Z,4.30
2022-08-27T03:45:20.274Z,4.55
2022-08-27T03:46:52.966Z,4.30
2022-08-27T03:48:25.433Z,4.30
2022-08-27T03:49:57.453Z,4.53
2022-08-27T03:51:29.597Z,4.30
2022-08-27T03:53:01.825Z,4.65
2022-08-27T03:54:38.594Z,4.53
2022-08-27T03:56:10.978Z,4.45
2022-08-27T03:57:43.106Z,4.82
2022-08-27T03:59:16.149Z,4.80
2022-08-27T04:00:48.830Z,4.65
2022-08-27T04:02:21.242Z,4.82
2022-08-27T04:03:53.539Z,4.50
2022-08-27T04:05:25.646Z,4.57
2022-08-27T04:06:59.013Z,4.85
2022-08-27T04:08:31.406Z,4.65
2022-08-27T04:10:03.811Z,4.60
2022-08-27T04:11:36.238Z,4.50
2022-08-27T04:13:08.283Z,4.23
2022-08-27T04:14:40.508Z,4.93
2022-08-27T04:16:12.714Z,4.18
2022-08-27T04:17:44.882Z,3.85
2022-08-27T04:19:17.174Z,5.15
2022-08-27T04:20:50.725Z,4.35
2022-08-27T04:22:24.020Z,4.22
2022-08-27T04:54:32.982Z,4.28
2022-08-27T04:56:05.754Z,4.28
2022-08-27T04:57:46.524Z,4.88
2022-08-27T04:59:19.007Z,4.68
2022-08-27T05:00:56.729Z,4.65
2022-08-27T05:02:29.056Z,4.40
2022-08-27T05:04:01.197Z,4.90
2022-08-27T05:05:33.350Z,4.60
2022-08-27T05:07:06.110Z,4.53
2022-08-27T05:08:41.315Z,4.32
2022-08-27T05:10:13.417Z,4.20
2022-08-27T05:11:45.687Z,4.80
2022-08-27T05:13:24.547Z,4.40
2022-08-27T05:14:56.663Z,4.05
2022-08-27T05:16:28.723Z,4.13
2022-08-27T05:18:01.187Z,4.40
2022-08-27T05:19:33.806Z,4.83
2022-08-27T05:21:09.115Z,3.95
2022-08-27T05:22:44.984Z,4.32
2022-08-27T05:24:17.795Z,4.10
2022-08-27T05:25:51.641Z,4.47
2022-08-27T05:27:23.715Z,4.35
2022-08-27T05:28:56.135Z,4.43
2022-08-27T05:30:28.193Z,4.07
2022-08-27T05:32:00.653Z,3.97
2022-08-27T05:33:33.280Z,4.40
2022-08-27T05:35:06.541Z,4.67
2022-08-27T05:36:48.023Z,3.83
2022-08-27T05:38:22.145Z,4.13
2022-08-27T05:39:54.575Z,4.75
2022-08-27T05:41:33.677Z,4.20
2022-08-27T05:43:07.578Z,4.65
2022-08-27T05:44:41.348Z,4.05
2022-08-27T05:46:17.247Z,3.95
2022-08-27T05:47:49.659Z,3.97
2022-08-27T05:49:22.137Z,4.32
2022-08-27T05:50:54.241Z,4.03
2022-08-27T05:52:26.243Z,4.55
2022-08-27T05:54:05.601Z,4.38
2022-08-27T05:55:46.894Z,4.18
2022-08-27T05:57:19.108Z,3.97
2022-08-27T05:59:09.650Z,4.13
2022-08-27T06:01:04.195Z,3.60
2022-08-27T06:02:39.783Z,4.40
2022-08-27T06:04:12.702Z,4.35
2022-08-27T06:05:50.655Z,4.43
2022-08-27T06:07:23.065Z,3.65
2022-08-27T06:40:41.642Z,4.35
2022-08-27T06:42:14.029Z,3.83
2022-08-27T06:43:47.067Z,4.47
2022-08-27T06:45:19.496Z,3.88
2022-08-27T06:46:52.435Z,4.03
2022-08-27T06:48:24.917Z,4.20
2022-08-27T06:49:58.171Z,4.20
2022-08-27T06:53:04.955Z,4.22
2022-08-27T06:54:37.222Z,3.65
2022-08-27T06:56:11.711Z,4.05
2022-08-27T06:57:46.837Z,3.70
2022-08-27T06:59:20.220Z,4.20
2022-08-27T07:00:52.578Z,3.80
2022-08-27T07:02:25.094Z,3.93
2022-08-27T07:03:59.308Z,4.05
2022-08-27T07:05:36.101Z,3.97
2022-08-27T07:07:08.483Z,3.80
2022-08-27T07:08:41.494Z,3.58
2022-08-27T07:10:14.002Z,3.70
2022-08-27T07:11:46.380Z,3.40
2022-08-27T07:13:18.704Z,4.13
2022-08-27T07:14:51.096Z,3.47
2022-08-27T07:16:24.838Z,3.42
2022-08-27T07:17:57.431Z,3.92
2022-08-27T07:19:30.773Z,3.38
2022-08-27T07:21:06.808Z,3.65
2022-08-27T07:22:43.567Z,3.85
2022-08-27T08:09:42.777Z,2.90
2022-08-27T08:11:17.329Z,3.25
2022-08-27T08:12:50.113Z,3.35
2022-08-27T08:14:22.551Z,3.22
2022-08-27T08:15:55.022Z,3.45
2022-08-27T08:17:27.486Z,3.47
2022-08-27T08:19:02.880Z,3.67
2022-08-27T08:20:56.526Z,3.50
2022-08-27T08:22:27.978Z,3.40
2022-08-27T08:24:00.752Z,3.65
2022-08-27T08:25:34.587Z,3.65
2022-08-27T09:10:35.893Z,3.47
2022-08-27T09:12:19.596Z,3.08
2022-08-27T09:13:51.852Z,2.83
2022-08-27T09:15:26.493Z,3.53
2022-08-27T09:17:02.235Z,3.35
2022-08-27T09:18:40.882Z,3.65
2022-08-27T09:20:14.017Z,3.20
2022-08-27T09:21:46.527Z,3.20
2022-08-27T09:23:25.728Z,3.22
2022-08-27T09:25:12.196Z,3.33
2022-08-27T09:26:45.311Z,3.08
2022-08-27T09:30:30.347Z,3.30
2022-08-27T09:32:09.000Z,3.33
2022-08-27T09:33:53.594Z,3.42
2022-08-27T09:35:35.442Z,3.30
2022-08-27T09:37:21.674Z,3.15
2022-08-27T09:38:59.771Z,3.47
2022-08-27T09:41:02.292Z,3.35
2022-08-27T09:42:53.665Z,3.13
2022-08-27T09:44:26.010Z,3.40
2022-08-27T09:46:03.311Z,3.40
2022-08-27T09:47:47.227Z,3.40
2022-08-27T09:49:20.256Z,3.25
2022-08-27T09:52:38.028Z,3.08
2022-08-27T09:54:11.711Z,3.50
2022-08-27T09:55:45.430Z,3.35
2022-08-27T09:57:33.218Z,3.70
2022-08-27T09:59:13.394Z,3.40
2022-08-27T10:00:49.919Z,3.78
2022-08-27T10:02:25.799Z,3.08
2022-08-27T10:04:11.202Z,3.33
2022-08-27T10:05:55.038Z,3.38
2022-08-27T10:07:54.174Z,3.28
2022-08-27T10:09:34.062Z,3.42
2022-08-27T10:11:21.679Z,3.50
2022-08-27T10:13:01.917Z,3.10
2022-08-27T10:14:47.043Z,3.78
2022-08-27T10:17:00.898Z,3.08
2022-08-27T10:18:46.731Z,3.72
2022-08-27T10:20:55.456Z,3.00
2022-08-27T10:22:35.471Z,3.50
2022-08-27T10:24:35.487Z,3.28
2022-08-27T10:26:18.316Z,3.35
2022-08-27T10:28:11.182Z,3.05
2022-08-27T10:30:04.082Z,2.85
2022-08-27T10:32:09.712Z,3.35
2022-08-27T10:33:46.109Z,3.63
2022-08-27T10:35:26.713Z,3.10
2022-08-27T10:55:15.607Z,3.58
2022-08-27T10:57:26.204Z,3.25
2022-08-27T10:59:11.438Z,3.42
2022-08-27T11:01:09.846Z,3.22
2022-08-27T11:03:02.257Z,3.50
2022-08-27T11:04:48.162Z,3.58
2022-08-27T11:06:37.172Z,3.50
2022-08-27T11:08:32.367Z,3.33
2022-08-27T11:10:25.736Z,3.75
2022-08-27T12:26:33.193Z,3.33
2022-08-27T12:33:54.351Z,3.03
2022-08-27T12:41:15.828Z,3.53
2022-08-27T12:42:50.980Z,3.20
2022-08-27T12:44:28.973Z,3.28
2022-08-27T12:46:02.694Z,3.15
2022-08-27T12:47:42.588Z,3.30
2022-08-27T12:49:38.381Z,3.78
2022-08-27T12:51:31.815Z,3.28
2022-08-27T12:53:13.113Z,3.40
2022-08-27T12:55:14.801Z,3.33
2022-08-27T12:56:56.311Z,3.40
2022-08-27T13:23:36.030Z,3.50
2022-08-27T13:25:27.929Z,3.05
2022-08-27T13:27:00.546Z,3.42
2022-08-27T13:28:34.577Z,3.67
2022-08-27T13:30:09.826Z,2.90
2022-08-27T13:31:45.170Z,3.15
2022-08-27T13:33:24.699Z,3.40
2022-08-27T13:34:58.876Z,3.15
2022-08-27T13:36:34.321Z,3.33
2022-08-27T13:38:07.285Z,3.00
2022-08-27T13:41:34.027Z,3.05
2022-08-27T13:43:13.059Z,3.08
2022-08-27T13:44:48.419Z,2.70
2022-08-27T13:46:27.093Z,3.20
2022-08-27T13:48:00.935Z,3.25
2022-08-27T13:49:39.725Z,3.17
2022-08-27T13:51:13.969Z,2.78
2022-08-27T13:53:05.005Z,3.13
2022-08-27T13:54:38.777Z,3.40
2022-08-27T13:56:11.717Z,2.90
2022-08-27T13:59:20.049Z,3.05
2022-08-27T14:00:53.264Z,3.15
2022-08-27T14:02:28.675Z,3.03
2022-08-27T14:04:07.075Z,2.80
2022-08-27T14:05:48.333Z,2.80
2022-08-27T14:10:41.850Z,3.42
2022-08-27T14:12:37.604Z,3.22
2022-08-27T14:14:10.115Z,3.30
2022-08-27T14:15:45.748Z,3.47
2022-08-27T14:17:29.756Z,3.22
2022-08-27T14:19:11.924Z,3.38
2022-08-27T14:20:44.705Z,2.90
2022-08-27T14:22:17.814Z,3.28
2022-08-27T14:23:50.447Z,3.10
2022-08-27T14:25:23.361Z,3.47
2022-08-27T14:27:03.044Z,3.08
2022-08-27T14:28:36.046Z,2.70
2022-08-27T14:39:04.697Z,3.13
2022-08-27T14:40:37.362Z,3.00
2022-08-27T14:42:10.587Z,3.30
2022-08-27T14:43:48.897Z,3.20
2022-08-27T14:45:23.817Z,3.17
2022-08-27T14:46:56.807Z,3.40
2022-08-27T14:48:32.535Z,3.30
2022-08-27T14:50:05.313Z,3.92
2022-08-27T14:51:38.478Z,2.92
2022-08-27T14:53:11.078Z,3.00
2022-08-27T14:54:44.593Z,3.10
2022-08-27T14:56:16.973Z,2.95
2022-08-27T14:57:49.354Z,3.25
2022-08-27T14:59:25.276Z,3.08
2022-08-27T15:00:58.264Z,3.55
2022-08-27T15:11:21.001Z,3.50
2022-08-27T15:12:54.898Z,3.28
2022-08-27T15:14:35.265Z,2.80
2022-08-27T15:16:07.757Z,3.35
2022-08-27T15:17:40.375Z,3.15
2022-08-27T15:19:15.801Z,3.20
2022-08-27T15:20:48.364Z,3.28
2022-08-27T15:22:25.336Z,2.95
2022-08-27T15:39:41.488Z,3.00
2022-08-27T15:41:13.989Z,3.10
2022-08-27T15:42:48.187Z,3.17
2022-08-27T15:44:20.689Z,3.63
2022-08-27T15:45:54.589Z,3.42
2022-08-27T15:47:27.023Z,3.42
2022-08-27T15:48:59.710Z,3.03
2022-08-27T15:50:32.786Z,3.00
2022-08-27T15:52:05.736Z,3.30
2022-08-27T15:55:21.344Z,3.58
2022-08-27T15:56:53.755Z,3.13
2022-08-27T15:58:29.103Z,3.42
2022-08-27T16:00:01.682Z,3.67
2022-08-27T16:01:36.632Z,3.28
2022-08-27T16:03:12.081Z,3.30
2022-08-27T16:04:45.293Z,3.13
2022-08-27T16:06:21.555Z,3.80
2022-08-27T16:07:53.887Z,3.13
2022-08-27T16:09:26.260Z,3.55
2022-08-27T17:13:42.037Z,4.50
2022-08-27T17:15:19.587Z,4.22
2022-08-27T18:36:31.611Z,3.97
2022-08-27T18:38:04.552Z,4.70
2022-08-27T18:39:39.566Z,4.18
2022-08-27T18:41:12.313Z,5.03
2022-08-27T18:42:45.669Z,4.38
2022-08-27T18:44:18.197Z,4.97
2022-08-27T18:45:50.712Z,5.00
2022-08-27T18:47:28.277Z,4.97
2022-08-27T18:49:00.609Z,4.82
2022-08-27T18:50:33.771Z,4.40
2022-08-27T18:52:09.352Z,4.20
2022-08-27T18:53:42.941Z,4.43
2022-08-27T18:55:17.728Z,4.13
2022-08-27T18:56:50.863Z,4.57
2022-08-27T18:58:23.923Z,4.68
2022-08-27T18:59:56.300Z,4.45
2022-08-27T19:01:28.856Z,5.03
2022-08-27T19:03:02.157Z,4.45
2022-08-27T19:06:09.804Z,5.35
2022-08-27T19:07:42.316Z,4.47
2022-08-27T19:09:16.656Z,4.47
2022-08-27T19:10:48.968Z,4.50
2022-08-27T19:12:21.366Z,4.73
2022-08-27T19:13:53.853Z,4.28
2022-08-27T19:15:26.583Z,4.82
2022-08-27T19:16:59.355Z,4.32
2022-08-27T19:18:33.958Z,4.75
2022-08-27T19:20:07.219Z,4.60
2022-08-27T19:23:13.232Z,4.40
2022-08-27T19:24:47.553Z,5.50
2022-08-27T19:28:56.232Z,5.22
2022-08-27T19:31:06.351Z,4.70
2022-08-27T19:36:17.753Z,5.05
2022-08-27T19:37:52.705Z,4.47
2022-08-27T19:41:00.275Z,4.90
2022-08-27T19:42:32.768Z,4.63
2022-08-27T19:44:05.555Z,5.03
2022-08-27T19:45:39.843Z,5.13
2022-08-27T19:47:15.028Z,4.90
2022-08-27T19:48:48.825Z,5.20
2022-08-27T19:53:37.353Z,4.70
2022-08-27T19:55:13.897Z,4.60
2022-08-27T19:56:46.972Z,4.82
2022-08-27T19:58:20.416Z,5.00
2022-08-27T19:59:53.144Z,5.13
2022-08-27T20:01:26.497Z,5.10
2022-08-27T20:02:58.874Z,4.70
2022-08-27T20:04:35.738Z,5.63
2022-08-27T20:06:11.991Z,5.03
2022-08-27T20:07:46.647Z,4.97
2022-08-27T20:09:21.713Z,5.50
2022-08-27T20:10:54.118Z,4.97
2022-08-27T20:12:27.318Z,5.13
2022-08-27T20:14:00.598Z,5.00
2022-08-27T20:15:34.355Z,5.40
2022-08-27T20:17:06.934Z,5.75
2022-08-27T20:18:39.425Z,4.93
2022-08-27T20:20:12.214Z,5.47
2022-08-27T20:21:44.688Z,5.20
2022-08-27T20:23:17.093Z,5.22
2022-08-27T20:24:49.421Z,5.17
2022-08-27T20:26:23.001Z,5.60
2022-08-27T20:27:55.405Z,5.80
2022-08-27T20:29:32.591Z,5.27
2022-08-27T20:31:05.637Z,5.05
2022-08-27T20:32:38.043Z,4.70
2022-08-27T20:34:10.632Z,4.97
2022-08-27T20:35:43.822Z,4.88
2022-08-27T20:37:17.597Z,4.82
2022-08-27T20:38:50.698Z,5.03
2022-08-27T20:40:27.530Z,5.00
2022-08-27T20:42:00.276Z,5.25
2022-08-27T20:43:33.303Z,4.80
2022-08-27T20:45:11.211Z,5.20
2022-08-27T20:46:45.642Z,4.85
2022-08-27T20:48:24.164Z,5.20
2022-08-27T20:49:56.616Z,4.93
2022-08-27T20:51:30.139Z,5.00
2022-08-27T20:53:22.780Z,5.18
2022-08-27T20:54:55.336Z,5.00
2022-08-27T20:56:27.815Z,5.20
2022-08-27T20:58:18.539Z,5.00
2022-08-27T21:00:09.338Z,5.28
2022-08-27T21:01:41.902Z,4.93
2022-08-27T21:03:14.800Z,4.72
2022-08-27T21:04:47.846Z,5.28
2022-08-27T21:06:24.985Z,5.00
2022-08-27T21:07:58.752Z,5.00
2022-08-27T21:09:31.140Z,5.20
2022-08-27T21:11:10.048Z,4.63
2022-08-27T21:12:42.611Z,5.38
2022-08-27T21:14:14.927Z,4.75
